Airfield :
LOGIN :

Register | Disclaimer

   EN    FR    IT 

 










Legend :    VFR   Marginal VFR   IFR   Intensive IFR   Very Intensive IFR
Visi :
Ceiling :
>= 8 km
>= 3000ft
5 to 8 km
1000 to 3000 ft
1500m to 5 km
500 to 1000 ft
800 to 1500m
200 to 500 ft
< 800m
< 200 ft
Symbols :   Thunderstorms  Fog  Heavy snow  Heavy precipitations  Wind > 20 kt
SIGMETs :     Misc.  Thunderstorms  Icing  Turbulence  Mountain Waves  Volcanic Ashes






- Airport Elevation : 844 ft
- IATA code : OSR


LKMT - Ostrava-Mosnov

CURRENT METAR :
  • 020830Z 00000KT 7000 NSC M03/M06 Q1023 NOSIG

EXPIRED METARs :
  • 020800Z 00000KT 7000 NSC M04/M06 Q1023 NOSIG
  • 020730Z 00000KT 8000 NSC M07/M08 Q1023 NOSIG
  • 020700Z 21003KT 7000 NSC M07/M08 Q1023 NOSIG
  • 020630Z VRB01KT 7000 NSC M07/M08 Q1023 NOSIG
  • 020600Z VRB01KT CAVOK M07/M08 Q1023 NOSIG

TAF TAF LKMT
Valid from the 02 at 06:00 until the 03 at 12:00 UTC


020500Z 0206/0312 VRB02KT CAVOK
PROB30
TEMPO 0206/0208 1500 MIFG SCT003
TEMPO 0220/0308 05005KT 2000 BR BKN005
BECMG 0309/0311 5000 -SN BR BKN013



MET'MAP, your aeronautical weather chart ! - Copyright ORBIFLY December 2007 - Disclaimer

ORBIFLY MET'MAP TEAM :

Programming & Development : Alexandra Zaïnal
Concept & original design : Baudouin d'Aumeries
Assistance for programming : Marc-Olivier Méhu
Technical & hardware support : Manuel Goepfert

Contact : metmap@orbifly.com




SOURCES & CREDITS :

   NOAA